Time;durP1;ratioP1;P1;durP2;ratioP2;P2;SDS_P1;SDS_P2;PMS_P1;PMS_P2;Temp;Humidity;BMP_temperature;BMP_pressure;BME280_temperature;BME280_humidity;BME280_pressure;Samples;Min_cycle;Max_cycle;Signal;HPM_P1;HPM_P2
2023/04/15 00:01:41;;;;;;;8.25;5.22;;;;;;;;;;5058352;28;20103;-73
2023/04/15 00:04:08;;;;;;;8.20;5.35;;;;;;;;;;5062486;28;20067;-73
2023/04/15 00:06:36;;;;;;;9.18;5.80;;;;;;;;;;5053569;28;20103;-72
2023/04/15 00:09:02;;;;;;;9.30;5.82;;;;;;;;;;5053464;28;20032;-72
2023/04/15 00:11:29;;;;;;;7.10;5.50;;;;;;;;;;5053449;28;20033;-73
2023/04/15 00:13:55;;;;;;;11.25;6.22;;;;;;;;;;5053585;28;20021;-73
2023/04/15 00:16:21;;;;;;;10.57;6.15;;;;;;;;;;5053462;28;20371;-73
2023/04/15 00:18:47;;;;;;;8.45;5.53;;;;;;;;;;5053230;28;20067;-73
2023/04/15 00:21:13;;;;;;;8.05;5.70;;;;;;;;;;5053217;28;20025;-72
2023/04/15 00:23:39;;;;;;;10.02;5.80;;;;;;;;;;5053048;28;20017;-73
2023/04/15 00:26:05;;;;;;;9.05;6.10;;;;;;;;;;5053163;28;20025;-73
2023/04/15 00:28:31;;;;;;;9.88;5.78;;;;;;;;;;5053543;28;20582;-72
2023/04/15 00:30:57;;;;;;;9.60;6.05;;;;;;;;;;5053189;28;20486;-72
2023/04/15 00:33:23;;;;;;;8.50;6.13;;;;;;;;;;5053733;28;20266;-72
2023/04/15 00:35:49;;;;;;;9.43;6.18;;;;;;;;;;5053289;28;20025;-73
2023/04/15 00:38:16;;;;;;;11.05;6.43;;;;;;;;;;5053831;28;20028;-73
2023/04/15 00:40:43;;;;;;;10.65;6.90;;;;;;;;;;5052962;28;20386;-72
2023/04/15 00:43:09;;;;;;;10.93;5.97;;;;;;;;;;5052549;28;20021;-72
2023/04/15 00:45:35;;;;;;;9.90;6.35;;;;;;;;;;5052802;28;20394;-72
2023/04/15 00:48:01;;;;;;;8.65;6.03;;;;;;;;;;5052647;28;20041;-73
2023/04/15 00:50:27;;;;;;;8.15;6.15;;;;;;;;;;5053886;28;20526;-72
2023/04/15 00:52:53;;;;;;;9.98;7.03;;;;;;;;;;5056929;28;20090;-73
2023/04/15 00:55:19;;;;;;;13.27;7.22;;;;;;;;;;5052453;28;20104;-72
2023/04/15 00:57:45;;;;;;;13.60;7.40;;;;;;;;;;5052174;28;20128;-73
2023/04/15 01:00:11;;;;;;;11.80;6.97;;;;;;;;;;5053752;28;20032;-73
2023/04/15 01:02:38;;;;;;;13.15;8.98;;;;;;;;;;5052082;28;20394;-74
2023/04/15 01:05:04;;;;;;;9.88;7.60;;;;;;;;;;5052703;28;20021;-73
2023/04/15 01:07:30;;;;;;;10.82;7.70;;;;;;;;;;5051866;28;20116;-72
2023/04/15 01:09:56;;;;;;;12.30;8.40;;;;;;;;;;5052822;28;20130;-74
2023/04/15 01:12:24;;;;;;;11.45;7.97;;;;;;;;;;5052675;28;20063;-72
2023/04/15 01:14:50;;;;;;;13.32;8.30;;;;;;;;;;5052974;28;20029;-73
2023/04/15 01:17:16;;;;;;;13.07;8.52;;;;;;;;;;5052457;28;20044;-74
2023/04/15 01:19:42;;;;;;;12.15;8.65;;;;;;;;;;5052960;28;20021;-73
2023/04/15 01:22:09;;;;;;;11.70;8.55;;;;;;;;;;5052398;28;20081;-73
2023/04/15 01:24:35;;;;;;;12.75;8.38;;;;;;;;;;5052082;28;20025;-72
2023/04/15 01:27:02;;;;;;;11.20;8.55;;;;;;;;;;5052080;28;20035;-73
2023/04/15 01:29:28;;;;;;;12.23;8.82;;;;;;;;;;5051959;28;20036;-72
2023/04/15 01:31:55;;;;;;;12.63;8.35;;;;;;;;;;5051658;28;20029;-72
2023/04/15 01:34:22;;;;;;;11.80;8.52;;;;;;;;;;5051932;28;20043;-72
2023/04/15 01:36:48;;;;;;;12.98;9.10;;;;;;;;;;5052597;28;20445;-75
2023/04/15 01:39:14;;;;;;;13.35;9.18;;;;;;;;;;5052270;28;20083;-72
2023/04/15 01:41:41;;;;;;;12.93;9.05;;;;;;;;;;5051848;28;20028;-73
2023/04/15 01:44:07;;;;;;;15.13;9.57;;;;;;;;;;5051712;28;20025;-72
2023/04/15 01:46:33;;;;;;;15.02;9.43;;;;;;;;;;5051760;28;20025;-73
2023/04/15 01:48:59;;;;;;;11.35;8.55;;;;;;;;;;5051734;28;20055;-73
2023/04/15 01:51:26;;;;;;;11.73;8.73;;;;;;;;;;5051683;28;20107;-72
2023/04/15 01:53:52;;;;;;;11.38;8.35;;;;;;;;;;5050604;28;20045;-73
2023/04/15 01:56:18;;;;;;;11.15;8.38;;;;;;;;;;5051780;28;20017;-74
2023/04/15 01:58:44;;;;;;;13.05;8.02;;;;;;;;;;5051974;28;20021;-72
2023/04/15 02:01:10;;;;;;;12.70;9.00;;;;;;;;;;5051939;28;20036;-72
2023/04/15 02:03:38;;;;;;;12.23;8.75;;;;;;;;;;5051687;28;20021;-76
2023/04/15 02:06:05;;;;;;;11.45;8.40;;;;;;;;;;5054708;28;20098;-73
2023/04/15 02:08:31;;;;;;;11.30;7.90;;;;;;;;;;5051630;28;20064;-74
2023/04/15 02:10:57;;;;;;;11.68;8.27;;;;;;;;;;5051729;28;20540;-71
2023/04/15 02:13:23;;;;;;;12.88;9.02;;;;;;;;;;5051484;28;20025;-72
2023/04/15 02:15:51;;;;;;;13.02;8.38;;;;;;;;;;5051996;28;20021;-75
2023/04/15 02:18:17;;;;;;;13.35;8.18;;;;;;;;;;5058417;28;20106;-74
2023/04/15 02:20:43;;;;;;;11.02;8.07;;;;;;;;;;5034432;28;20021;-72
2023/04/15 02:23:10;;;;;;;11.68;7.82;;;;;;;;;;5053125;28;20104;-73
2023/04/15 02:25:37;;;;;;;12.68;8.73;;;;;;;;;;5071575;28;20082;-73
2023/04/15 02:28:03;;;;;;;12.25;8.65;;;;;;;;;;5063118;28;20043;-72
2023/04/15 02:30:29;;;;;;;11.73;8.57;;;;;;;;;;5054420;28;20493;-72
2023/04/15 02:32:55;;;;;;;10.35;7.95;;;;;;;;;;5055131;28;20436;-72
2023/04/15 02:35:21;;;;;;;11.77;8.15;;;;;;;;;;5055674;28;20025;-72
2023/04/15 02:37:47;;;;;;;11.68;8.32;;;;;;;;;;5055171;28;20021;-73
2023/04/15 02:40:13;;;;;;;11.52;7.88;;;;;;;;;;5055231;28;20028;-72
2023/04/15 02:42:40;;;;;;;11.77;8.55;;;;;;;;;;5058742;28;20020;-73
2023/04/15 02:45:06;;;;;;;11.98;8.45;;;;;;;;;;5075225;28;20036;-71
2023/04/15 02:47:33;;;;;;;12.65;8.90;;;;;;;;;;5074763;28;20045;-72
2023/04/15 02:50:00;;;;;;;12.27;9.40;;;;;;;;;;5075242;28;20025;-72
2023/04/15 02:52:26;;;;;;;15.80;10.90;;;;;;;;;;5074371;28;20478;-72
2023/04/15 02:54:56;;;;;;;18.88;12.45;;;;;;;;;;5075360;28;20075;-73
2023/04/15 02:57:22;;;;;;;17.00;11.35;;;;;;;;;;5074505;28;20428;-71
2023/04/15 02:59:48;;;;;;;14.55;10.98;;;;;;;;;;5075306;28;20060;-73
2023/04/15 03:02:14;;;;;;;15.25;11.07;;;;;;;;;;5074545;28;20394;-71
2023/04/15 03:04:40;;;;;;;14.77;10.63;;;;;;;;;;5074489;28;20064;-71
2023/04/15 03:07:06;;;;;;;14.95;10.98;;;;;;;;;;5075092;28;20043;-72
2023/04/15 03:09:32;;;;;;;16.52;11.88;;;;;;;;;;5056812;28;20085;-72
2023/04/15 03:11:58;;;;;;;18.90;11.52;;;;;;;;;;5054458;28;20467;-72
2023/04/15 03:14:24;;;;;;;16.67;11.68;;;;;;;;;;5054827;28;20029;-72
2023/04/15 03:16:50;;;;;;;17.70;12.45;;;;;;;;;;5054790;28;20036;-75
2023/04/15 03:19:17;;;;;;;16.17;10.90;;;;;;;;;;5054352;28;20083;-72
2023/04/15 03:21:43;;;;;;;19.73;12.35;;;;;;;;;;5054313;28;20104;-72
2023/04/15 03:24:09;;;;;;;19.73;13.38;;;;;;;;;;5054246;28;20021;-72
2023/04/15 03:26:35;;;;;;;21.13;13.57;;;;;;;;;;5054499;28;20052;-72
2023/04/15 03:29:01;;;;;;;20.10;13.52;;;;;;;;;;5054284;28;20062;-73
2023/04/15 03:31:27;;;;;;;22.10;13.93;;;;;;;;;;5054245;28;20061;-71
2023/04/15 03:33:53;;;;;;;20.83;14.35;;;;;;;;;;5054016;28;20025;-71
2023/04/15 03:36:19;;;;;;;25.42;16.13;;;;;;;;;;5054298;28;20433;-71
2023/04/15 03:38:45;;;;;;;22.85;14.77;;;;;;;;;;5054134;28;20044;-72
2023/04/15 03:41:11;;;;;;;25.25;15.23;;;;;;;;;;5053620;28;20025;-72
2023/04/15 03:43:37;;;;;;;23.88;15.40;;;;;;;;;;5055336;28;20029;-72
2023/04/15 03:46:04;;;;;;;23.20;15.25;;;;;;;;;;5054281;28;20029;-72
2023/04/15 03:48:30;;;;;;;25.10;16.23;;;;;;;;;;5054110;28;20025;-73
2023/04/15 03:50:56;;;;;;;27.15;16.85;;;;;;;;;;5054429;28;20032;-72
2023/04/15 03:53:22;;;;;;;29.00;17.45;;;;;;;;;;5055256;28;20025;-75
2023/04/15 03:55:48;;;;;;;30.52;18.38;;;;;;;;;;5046336;28;20017;-75
2023/04/15 03:58:14;;;;;;;29.40;18.45;;;;;;;;;;5064209;28;20040;-74
2023/04/15 04:00:41;;;;;;;28.35;18.27;;;;;;;;;;5074458;28;20545;-76
2023/04/15 04:03:07;;;;;;;31.73;19.15;;;;;;;;;;5055775;28;20033;-74
2023/04/15 04:05:35;;;;;;;34.10;20.13;;;;;;;;;;5079010;28;20485;-73
2023/04/15 04:08:02;;;;;;;31.10;19.63;;;;;;;;;;5073530;28;20067;-71
2023/04/15 04:10:28;;;;;;;35.70;21.45;;;;;;;;;;5073432;28;20486;-71
2023/04/15 04:12:54;;;;;;;36.95;21.58;;;;;;;;;;5073281;28;20085;-72
2023/04/15 04:15:20;;;;;;;40.25;21.45;;;;;;;;;;5074001;28;20024;-72
2023/04/15 04:17:46;;;;;;;42.78;24.98;;;;;;;;;;5074469;28;20359;-72
2023/04/15 04:20:12;;;;;;;36.40;22.50;;;;;;;;;;5074046;28;20055;-71
2023/04/15 04:22:39;;;;;;;38.42;23.25;;;;;;;;;;5073051;28;20028;-71
2023/04/15 04:25:07;;;;;;;37.65;22.45;;;;;;;;;;5074651;28;20035;-73
2023/04/15 04:27:33;;;;;;;35.97;22.10;;;;;;;;;;5075774;28;20086;-72
2023/04/15 04:29:59;;;;;;;41.33;23.70;;;;;;;;;;5073002;28;20032;-72
2023/04/15 04:32:25;;;;;;;40.70;23.70;;;;;;;;;;5072841;28;20478;-72
2023/04/15 04:34:51;;;;;;;38.72;23.55;;;;;;;;;;5073049;28;20103;-72
2023/04/15 04:37:17;;;;;;;35.92;22.10;;;;;;;;;;5073005;28;20024;-72
2023/04/15 04:39:43;;;;;;;40.20;23.63;;;;;;;;;;5072843;28;20025;-73
2023/04/15 04:42:09;;;;;;;39.00;22.58;;;;;;;;;;5072726;28;20020;-71
2023/04/15 04:44:36;;;;;;;40.55;23.75;;;;;;;;;;5073325;28;20047;-74
2023/04/15 04:47:02;;;;;;;45.90;26.33;;;;;;;;;;5073593;28;20059;-73
2023/04/15 04:49:28;;;;;;;40.90;23.98;;;;;;;;;;5073715;28;20462;-74
2023/04/15 04:51:54;;;;;;;43.60;25.77;;;;;;;;;;5072322;28;20026;-73
2023/04/15 04:54:20;;;;;;;45.50;25.92;;;;;;;;;;5074403;28;20027;-72
2023/04/15 04:56:46;;;;;;;47.50;26.75;;;;;;;;;;5072652;28;20107;-72
2023/04/15 04:59:12;;;;;;;50.05;28.08;;;;;;;;;;5072415;28;20031;-73
2023/04/15 05:01:38;;;;;;;50.08;29.35;;;;;;;;;;5070005;28;20036;-75
2023/04/15 05:04:06;;;;;;;50.20;28.50;;;;;;;;;;5063494;28;20534;-74
2023/04/15 05:06:32;;;;;;;50.75;30.13;;;;;;;;;;5063330;28;20482;-73
2023/04/15 05:08:58;;;;;;;54.17;30.02;;;;;;;;;;5062616;28;20107;-74
2023/04/15 05:11:24;;;;;;;56.05;31.90;;;;;;;;;;5061181;28;20450;-74
2023/04/15 05:13:50;;;;;;;54.60;30.63;;;;;;;;;;5063421;28;20478;-74
2023/04/15 05:16:18;;;;;;;49.40;28.55;;;;;;;;;;5064371;28;20028;-75
2023/04/15 05:18:44;;;;;;;55.13;30.90;;;;;;;;;;5061348;28;20477;-75
2023/04/15 05:21:11;;;;;;;57.55;30.58;;;;;;;;;;5066206;28;20047;-75
2023/04/15 05:23:37;;;;;;;52.50;30.83;;;;;;;;;;5062542;28;20032;-74
2023/04/15 05:26:03;;;;;;;49.75;28.75;;;;;;;;;;5061020;28;20032;-76
2023/04/15 05:28:29;;;;;;;61.78;31.85;;;;;;;;;;5061044;28;20033;-76
2023/04/15 05:30:55;;;;;;;55.65;32.45;;;;;;;;;;5064573;28;20043;-76
2023/04/15 05:33:21;;;;;;;57.25;31.73;;;;;;;;;;5045515;28;20028;-74
2023/04/15 05:35:47;;;;;;;56.20;31.52;;;;;;;;;;5070308;28;20498;-72
2023/04/15 05:38:13;;;;;;;57.78;31.33;;;;;;;;;;5060177;28;20036;-73
2023/04/15 05:40:40;;;;;;;52.13;30.40;;;;;;;;;;5065296;28;20020;-73
2023/04/15 05:43:06;;;;;;;51.20;29.10;;;;;;;;;;5063120;28;20017;-74
2023/04/15 05:45:32;;;;;;;50.03;29.15;;;;;;;;;;5063152;28;20039;-74
2023/04/15 05:47:58;;;;;;;51.47;31.25;;;;;;;;;;5063193;28;20063;-72
2023/04/15 05:50:24;;;;;;;49.92;28.98;;;;;;;;;;5063836;28;20041;-72
2023/04/15 05:52:50;;;;;;;53.47;31.23;;;;;;;;;;5062903;28;20028;-72
2023/04/15 05:55:16;;;;;;;55.95;32.08;;;;;;;;;;5058863;28;20052;-72
2023/04/15 05:57:42;;;;;;;51.45;30.70;;;;;;;;;;5063782;28;20036;-71
2023/04/15 06:00:08;;;;;;;51.42;30.20;;;;;;;;;;5063045;28;20486;-71
2023/04/15 06:02:35;;;;;;;54.42;30.45;;;;;;;;;;5061804;28;20107;-72
2023/04/15 06:05:01;;;;;;;53.17;32.25;;;;;;;;;;5059145;28;20112;-72
2023/04/15 06:07:27;;;;;;;57.13;33.60;;;;;;;;;;5061523;28;20040;-73
2023/04/15 06:09:54;;;;;;;57.17;33.45;;;;;;;;;;5057591;28;20028;-76
2023/04/15 06:12:20;;;;;;;58.20;33.55;;;;;;;;;;5059446;28;20607;-72
2023/04/15 06:14:46;;;;;;;60.53;32.85;;;;;;;;;;5065490;28;20112;-74
2023/04/15 06:17:13;;;;;;;61.50;35.45;;;;;;;;;;5065097;28;20100;-72
2023/04/15 06:19:39;;;;;;;67.15;35.90;;;;;;;;;;5061921;28;20025;-72
2023/04/15 06:22:06;;;;;;;64.45;36.67;;;;;;;;;;5059524;28;20025;-75
2023/04/15 06:24:32;;;;;;;63.90;35.38;;;;;;;;;;5061762;28;20028;-73
2023/04/15 06:26:58;;;;;;;63.80;36.30;;;;;;;;;;5041551;28;20029;-75
2023/04/15 06:29:24;;;;;;;69.50;38.63;;;;;;;;;;5060486;28;20037;-77
2023/04/15 06:31:50;;;;;;;70.20;38.22;;;;;;;;;;5059858;28;20033;-74
2023/04/15 06:34:16;;;;;;;86.05;40.92;;;;;;;;;;5033577;28;20029;-71
2023/04/15 06:36:42;;;;;;;69.93;38.63;;;;;;;;;;5051338;28;20544;-72
2023/04/15 06:39:08;;;;;;;73.43;39.38;;;;;;;;;;5051897;28;20064;-72
2023/04/15 06:41:34;;;;;;;73.35;40.00;;;;;;;;;;5051374;28;20056;-73
2023/04/15 06:44:00;;;;;;;78.03;41.65;;;;;;;;;;5051134;28;20021;-69
2023/04/15 06:46:26;;;;;;;78.28;41.40;;;;;;;;;;5051438;28;20025;-74
2023/04/15 06:48:52;;;;;;;77.90;42.13;;;;;;;;;;5051632;28;20028;-71
2023/04/15 06:51:18;;;;;;;74.20;41.63;;;;;;;;;;5051560;28;20574;-72
2023/04/15 06:53:44;;;;;;;77.28;40.75;;;;;;;;;;5051654;28;20025;-71
2023/04/15 06:56:10;;;;;;;84.28;44.30;;;;;;;;;;5051611;28;20096;-72
2023/04/15 06:58:36;;;;;;;73.68;40.78;;;;;;;;;;5051231;28;20097;-75
2023/04/15 07:01:04;;;;;;;83.60;42.63;;;;;;;;;;5034956;28;20345;-75
2023/04/15 07:03:30;;;;;;;80.50;41.90;;;;;;;;;;5058026;28;20025;-74
2023/04/15 07:05:56;;;;;;;83.00;44.63;;;;;;;;;;5071731;28;20496;-71
2023/04/15 07:08:23;;;;;;;83.55;42.42;;;;;;;;;;5070826;28;20029;-71
2023/04/15 07:10:48;;;;;;;92.05;44.65;;;;;;;;;;5071257;28;20055;-72
2023/04/15 07:13:15;;;;;;;98.78;44.60;;;;;;;;;;5070362;28;20056;-71
2023/04/15 07:15:41;;;;;;;90.72;44.33;;;;;;;;;;5072729;28;20020;-70
2023/04/15 07:18:08;;;;;;;83.95;43.60;;;;;;;;;;5074321;28;20035;-71
2023/04/15 07:20:34;;;;;;;82.43;44.80;;;;;;;;;;5074309;28;20496;-71
2023/04/15 07:23:00;;;;;;;80.13;43.47;;;;;;;;;;5073966;28;20521;-71
2023/04/15 07:25:26;;;;;;;76.18;43.08;;;;;;;;;;5073993;28;20039;-71
2023/04/15 07:27:53;;;;;;;86.93;46.45;;;;;;;;;;5074311;28;20041;-71
2023/04/15 07:30:19;;;;;;;82.80;45.20;;;;;;;;;;5075208;28;20416;-73
2023/04/15 07:32:45;;;;;;;88.22;45.63;;;;;;;;;;5074894;28;20475;-71
2023/04/15 07:35:12;;;;;;;83.88;45.13;;;;;;;;;;5075027;28;20033;-72
2023/04/15 07:37:38;;;;;;;85.63;44.80;;;;;;;;;;5074326;28;20394;-72
2023/04/15 07:40:05;;;;;;;82.75;45.47;;;;;;;;;;5073933;28;20025;-72
2023/04/15 07:42:31;;;;;;;82.65;45.28;;;;;;;;;;5074870;28;20171;-72
2023/04/15 07:44:57;;;;;;;90.38;46.95;;;;;;;;;;5075467;28;20066;-72
2023/04/15 07:47:23;;;;;;;76.93;44.55;;;;;;;;;;5074357;28;20031;-72
2023/04/15 07:49:50;;;;;;;82.25;45.92;;;;;;;;;;5076983;28;20021;-72
2023/04/15 07:52:16;;;;;;;83.18;45.30;;;;;;;;;;5077067;28;20042;-71
2023/04/15 07:54:42;;;;;;;84.03;45.17;;;;;;;;;;5074726;28;20032;-71
2023/04/15 07:57:08;;;;;;;84.07;46.70;;;;;;;;;;5075209;28;20036;-71
2023/04/15 07:59:34;;;;;;;85.30;46.40;;;;;;;;;;5074905;28;20027;-72
2023/04/15 08:02:00;;;;;;;83.63;45.00;;;;;;;;;;5074901;28;20056;-71
2023/04/15 08:04:26;;;;;;;79.47;44.78;;;;;;;;;;5075215;28;20100;-71
2023/04/15 08:06:53;;;;;;;85.15;46.55;;;;;;;;;;5075987;28;20107;-73
2023/04/15 08:09:20;;;;;;;84.72;47.05;;;;;;;;;;5076881;28;20020;-72
2023/04/15 08:11:48;;;;;;;86.38;47.33;;;;;;;;;;5058848;28;20103;-71
2023/04/15 08:14:14;;;;;;;80.65;46.45;;;;;;;;;;5077759;28;20024;-77
2023/04/15 08:16:41;;;;;;;87.78;46.72;;;;;;;;;;5083880;28;20104;-74
2023/04/15 08:19:07;;;;;;;91.10;49.20;;;;;;;;;;5076167;28;20021;-76
2023/04/15 08:21:33;;;;;;;96.20;51.50;;;;;;;;;;5074419;28;20025;-75
2023/04/15 08:24:00;;;;;;;92.50;49.90;;;;;;;;;;5073653;28;20095;-74
2023/04/15 08:26:26;;;;;;;92.95;50.95;;;;;;;;;;5072757;28;20100;-75
2023/04/15 08:28:54;;;;;;;90.68;51.97;;;;;;;;;;5075902;28;20055;-76
2023/04/15 08:31:21;;;;;;;92.05;48.85;;;;;;;;;;5060296;28;20379;-75
2023/04/15 08:33:47;;;;;;;93.65;50.15;;;;;;;;;;5079144;28;20024;-76
2023/04/15 08:36:13;;;;;;;86.93;47.95;;;;;;;;;;5079736;28;20025;-75
2023/04/15 08:38:40;;;;;;;87.28;48.00;;;;;;;;;;5065699;28;20116;-75
2023/04/15 08:41:17;;;;;;;92.43;51.00;;;;;;;;;;5083562;28;20025;-74
2023/04/15 08:43:48;;;;;;;89.80;47.72;;;;;;;;;;5081264;28;20047;-74
2023/04/15 08:46:15;;;;;;;93.63;50.75;;;;;;;;;;5080239;28;20032;-77
2023/04/15 08:48:42;;;;;;;91.00;49.72;;;;;;;;;;5083783;28;20027;-74
2023/04/15 08:51:08;;;;;;;85.13;50.00;;;;;;;;;;5080179;28;20021;-72
2023/04/15 08:53:34;;;;;;;90.85;50.90;;;;;;;;;;5073095;28;20024;-71
2023/04/15 08:56:04;;;;;;;93.78;49.50;;;;;;;;;;5074229;28;20479;-72
2023/04/15 08:58:30;;;;;;;87.03;48.60;;;;;;;;;;5073937;28;20021;-72
2023/04/15 09:00:56;;;;;;;93.70;49.00;;;;;;;;;;5076372;28;20030;-74
2023/04/15 09:03:23;;;;;;;87.90;48.33;;;;;;;;;;5072976;28;20445;-72
2023/04/15 09:05:50;;;;;;;87.07;49.05;;;;;;;;;;5074573;28;20468;-72
2023/04/15 09:08:16;;;;;;;93.05;49.28;;;;;;;;;;5072895;28;20026;-72
2023/04/15 09:10:42;;;;;;;87.88;47.85;;;;;;;;;;5072498;28;20054;-73
2023/04/15 09:13:09;;;;;;;87.07;49.00;;;;;;;;;;5072326;28;20535;-73
2023/04/15 09:15:37;;;;;;;94.22;49.63;;;;;;;;;;5072672;28;20381;-74
2023/04/15 09:18:03;;;;;;;88.72;47.30;;;;;;;;;;5072005;28;20021;-73
2023/04/15 09:20:29;;;;;;;105.63;54.50;;;;;;;;;;5072355;28;20123;-74
2023/04/15 09:22:56;;;;;;;101.72;54.00;;;;;;;;;;5071652;28;20064;-74
2023/04/15 09:25:22;;;;;;;100.88;55.70;;;;;;;;;;5071957;28;20116;-74
2023/04/15 09:27:51;;;;;;;109.13;58.22;;;;;;;;;;5071976;28;20465;-75
2023/04/15 09:30:17;;;;;;;108.70;62.13;;;;;;;;;;5073500;28;20559;-74
2023/04/15 09:32:50;;;;;;;127.57;67.15;;;;;;;;;;5073235;28;20046;-74
2023/04/15 09:35:16;;;;;;;117.53;61.92;;;;;;;;;;5074400;28;20017;-72
2023/04/15 09:37:42;;;;;;;103.32;54.95;;;;;;;;;;5074004;28;20060;-72
2023/04/15 09:40:08;;;;;;;97.97;54.08;;;;;;;;;;5071938;28;20067;-72
2023/04/15 09:42:36;;;;;;;96.70;53.83;;;;;;;;;;5071827;28;20056;-71
2023/04/15 09:45:11;;;;;;;94.07;51.22;;;;;;;;;;5072205;28;20072;-72
2023/04/15 09:47:37;;;;;;;93.55;51.75;;;;;;;;;;5072128;28;20095;-72
2023/04/15 09:50:03;;;;;;;98.53;48.70;;;;;;;;;;5071605;28;20108;-73
2023/04/15 09:52:29;;;;;;;85.85;46.75;;;;;;;;;;5071213;28;20056;-73
2023/04/15 09:54:59;;;;;;;85.88;49.53;;;;;;;;;;5071630;28;20028;-73
2023/04/15 09:57:33;;;;;;;105.32;52.38;;;;;;;;;;5071304;28;20032;-73
2023/04/15 09:59:59;;;;;;;83.53;46.10;;;;;;;;;;5071585;28;20021;-73
2023/04/15 10:02:26;;;;;;;86.82;46.25;;;;;;;;;;5071320;28;20056;-71
2023/04/15 10:04:53;;;;;;;82.32;43.75;;;;;;;;;;5075419;28;20054;-71
2023/04/15 10:07:21;;;;;;;74.30;43.83;;;;;;;;;;5075089;28;20025;-71
2023/04/15 10:09:48;;;;;;;76.57;43.72;;;;;;;;;;5071736;28;20659;-72
2023/04/15 10:12:16;;;;;;;74.22;43.13;;;;;;;;;;5071923;28;20036;-71
2023/04/15 10:14:46;;;;;;;74.15;40.88;;;;;;;;;;5072670;28;20494;-70
2023/04/15 10:17:12;;;;;;;69.22;39.20;;;;;;;;;;5072047;28;20575;-72
2023/04/15 10:19:38;;;;;;;77.53;41.42;;;;;;;;;;5055686;28;20111;-73
2023/04/15 10:22:04;;;;;;;67.97;39.60;;;;;;;;;;5055094;28;20170;-72
2023/04/15 10:24:31;;;;;;;62.90;37.33;;;;;;;;;;5073731;28;20108;-73
2023/04/15 10:26:59;;;;;;;68.10;37.78;;;;;;;;;;5070779;28;20047;-74
2023/04/15 10:29:26;;;;;;;77.45;43.45;;;;;;;;;;5072824;28;20020;-74
2023/04/15 10:31:53;;;;;;;82.15;45.55;;;;;;;;;;5066853;28;20021;-75
2023/04/15 10:34:19;;;;;;;89.00;47.22;;;;;;;;;;5072355;28;20470;-74
2023/04/15 10:36:46;;;;;;;91.07;48.55;;;;;;;;;;5067467;28;20029;-75
2023/04/15 10:39:30;;;;;;;80.38;44.67;;;;;;;;;;5070574;28;20032;-74
2023/04/15 10:42:13;;;;;;;68.45;34.53;;;;;;;;;;5061536;28;20029;-74
2023/04/15 10:44:39;;;;;;;46.10;28.77;;;;;;;;;;5068667;28;20417;-73
2023/04/15 10:47:13;;;;;;;54.92;32.83;;;;;;;;;;5067930;28;20024;-74
2023/04/15 10:49:46;;;;;;;44.47;26.98;;;;;;;;;;5066731;28;20028;-74
2023/04/15 10:52:13;;;;;;;45.00;26.10;;;;;;;;;;5070107;28;20393;-73
2023/04/15 10:54:39;;;;;;;38.03;24.27;;;;;;;;;;5071979;28;20077;-73
2023/04/15 10:57:05;;;;;;;40.90;25.10;;;;;;;;;;5068396;28;20416;-74
2023/04/15 10:59:32;;;;;;;45.45;23.92;;;;;;;;;;5065921;28;20035;-73
2023/04/15 11:02:03;;;;;;;35.60;22.10;;;;;;;;;;5070435;28;20052;-73
2023/04/15 11:04:47;;;;;;;39.22;22.63;;;;;;;;;;5067053;28;20442;-74
2023/04/15 11:07:13;;;;;;;37.42;22.23;;;;;;;;;;5069938;28;20050;-74
2023/04/15 11:09:39;;;;;;;35.10;22.40;;;;;;;;;;5071965;28;20104;-71
2023/04/15 11:12:07;;;;;;;33.70;21.52;;;;;;;;;;5067828;28;20052;-73
2023/04/15 11:14:34;;;;;;;35.70;21.27;;;;;;;;;;5069676;28;20017;-72
2023/04/15 11:17:00;;;;;;;40.65;19.33;;;;;;;;;;5071098;28;20028;-71
2023/04/15 11:19:26;;;;;;;28.63;17.58;;;;;;;;;;5071121;28;20137;-72
2023/04/15 11:21:52;;;;;;;30.52;17.15;;;;;;;;;;5066620;28;20133;-73
2023/04/15 11:24:28;;;;;;;31.50;17.25;;;;;;;;;;5069013;28;20557;-73
2023/04/15 11:26:58;;;;;;;29.33;17.58;;;;;;;;;;5070922;28;20029;-77
2023/04/15 11:29:30;;;;;;;24.48;14.50;;;;;;;;;;5069903;28;20490;-72
2023/04/15 11:32:04;;;;;;;20.98;12.63;;;;;;;;;;5069678;28;20107;-74
2023/04/15 11:34:31;;;;;;;23.50;13.45;;;;;;;;;;5068429;28;20013;-71
2023/04/15 11:36:57;;;;;;;27.10;14.43;;;;;;;;;;5059006;28;20020;-73
2023/04/15 11:39:23;;;;;;;21.92;14.00;;;;;;;;;;5055191;28;20137;-72
2023/04/15 11:41:49;;;;;;;26.20;13.02;;;;;;;;;;5055232;28;20064;-72
2023/04/15 11:44:16;;;;;;;21.73;13.60;;;;;;;;;;5054896;28;20093;-73
2023/04/15 11:46:42;;;;;;;22.08;12.93;;;;;;;;;;5054771;28;20164;-73
2023/04/15 11:49:08;;;;;;;18.67;12.48;;;;;;;;;;5036279;28;20040;-73
2023/04/15 11:51:35;;;;;;;18.77;11.68;;;;;;;;;;5055289;28;20429;-73
2023/04/15 11:54:01;;;;;;;15.88;11.30;;;;;;;;;;5054695;28;20036;-71
2023/04/15 11:56:27;;;;;;;14.57;10.63;;;;;;;;;;5054390;28;20033;-72
2023/04/15 11:58:55;;;;;;;20.08;12.65;;;;;;;;;;5053763;28;20029;-73
2023/04/15 12:01:30;;;;;;;18.00;11.98;;;;;;;;;;5054435;28;20021;-74
2023/04/15 12:03:58;;;;;;;;;;;;;;;;;;5053979;28;20040;-76
2023/04/15 12:06:26;;;;;;;19.20;12.02;;;;;;;;;;5053750;28;19996;-75
2023/04/15 12:08:55;;;;;;;24.98;12.13;;;;;;;;;;5053307;28;20028;-74
2023/04/15 12:11:21;;;;;;;21.20;10.80;;;;;;;;;;5053439;28;20090;-76
2023/04/15 12:13:48;;;;;;;34.03;12.07;;;;;;;;;;5053005;28;20037;-75
2023/04/15 12:16:20;;;;;;;33.00;11.90;;;;;;;;;;5053455;28;20028;-75
2023/04/15 12:18:47;;;;;;;25.13;12.82;;;;;;;;;;5053355;28;20029;-74
2023/04/15 12:21:13;;;;;;;18.90;11.65;;;;;;;;;;5053514;28;20406;-76
2023/04/15 12:23:40;;;;;;;18.90;11.88;;;;;;;;;;5052740;28;20049;-73
2023/04/15 12:26:06;;;;;;;20.90;11.93;;;;;;;;;;5051182;28;20110;-72
2023/04/15 12:28:35;;;;;;;17.80;12.65;;;;;;;;;;5056957;28;20499;-72
2023/04/15 12:31:06;;;;;;;20.60;11.30;;;;;;;;;;5073068;28;20409;-73
2023/04/15 12:33:32;;;;;;;16.42;12.18;;;;;;;;;;5072692;28;20021;-73
2023/04/15 12:35:58;;;;;;;18.52;12.23;;;;;;;;;;5073059;28;20105;-73
2023/04/15 12:38:24;;;;;;;17.95;11.70;;;;;;;;;;5072427;28;20029;-72
2023/04/15 12:40:50;;;;;;;20.35;12.30;;;;;;;;;;5072573;28;20025;-75
2023/04/15 12:43:17;;;;;;;18.25;12.43;;;;;;;;;;5072235;28;20572;-76
2023/04/15 12:45:43;;;;;;;20.95;12.35;;;;;;;;;;5072964;28;20031;-73
2023/04/15 12:48:09;;;;;;;20.25;12.43;;;;;;;;;;5073038;28;20077;-74
2023/04/15 12:50:35;;;;;;;20.00;12.50;;;;;;;;;;5073447;28;20028;-74
2023/04/15 12:53:02;;;;;;;21.92;12.65;;;;;;;;;;5074292;28;20032;-74
2023/04/15 12:55:29;;;;;;;21.13;12.32;;;;;;;;;;5072939;28;20087;-73
2023/04/15 12:57:56;;;;;;;21.60;12.80;;;;;;;;;;5072648;28;20024;-72
2023/04/15 13:00:23;;;;;;;24.70;13.15;;;;;;;;;;5072725;28;20028;-72
2023/04/15 13:02:49;;;;;;;20.02;13.23;;;;;;;;;;5073049;28;20028;-74
2023/04/15 13:05:16;;;;;;;19.50;13.30;;;;;;;;;;5072639;28;20021;-72
2023/04/15 13:07:42;;;;;;;23.95;14.07;;;;;;;;;;5072635;28;20055;-73
2023/04/15 13:10:08;;;;;;;19.50;12.85;;;;;;;;;;5071835;28;20389;-72
2023/04/15 13:12:35;;;;;;;20.55;13.50;;;;;;;;;;5071222;28;20642;-72
2023/04/15 13:15:02;;;;;;;19.98;12.73;;;;;;;;;;5072394;28;20056;-71
2023/04/15 13:17:28;;;;;;;22.60;13.02;;;;;;;;;;5072066;28;20016;-73
2023/04/15 13:19:54;;;;;;;21.80;12.48;;;;;;;;;;5072190;28;20055;-72
2023/04/15 13:22:20;;;;;;;20.05;13.05;;;;;;;;;;5072055;28;20474;-71
2023/04/15 13:24:46;;;;;;;19.58;12.80;;;;;;;;;;5071862;28;20071;-71
2023/04/15 13:27:12;;;;;;;23.13;12.48;;;;;;;;;;5055485;28;20025;-71
2023/04/15 13:29:39;;;;;;;22.38;12.75;;;;;;;;;;5051741;28;20491;-71
2023/04/15 13:32:05;;;;;;;18.17;11.85;;;;;;;;;;5050026;28;20017;-72
2023/04/15 13:34:31;;;;;;;18.73;11.07;;;;;;;;;;5051957;28;20043;-71
2023/04/15 13:36:57;;;;;;;17.80;11.07;;;;;;;;;;5051843;28;20473;-73
2023/04/15 13:39:23;;;;;;;19.23;11.32;;;;;;;;;;5052088;28;20021;-74
2023/04/15 13:41:49;;;;;;;18.33;12.30;;;;;;;;;;5051453;28;20029;-73
2023/04/15 13:44:15;;;;;;;19.38;11.85;;;;;;;;;;5056402;28;20029;-74
2023/04/15 13:46:41;;;;;;;17.50;10.90;;;;;;;;;;5052345;28;20025;-75
2023/04/15 13:49:07;;;;;;;16.45;10.25;;;;;;;;;;5072893;28;20101;-74
2023/04/15 13:51:35;;;;;;;17.77;10.02;;;;;;;;;;5072701;28;20417;-73
2023/04/15 13:54:01;;;;;;;16.00;10.57;;;;;;;;;;5071705;28;20484;-72
2023/04/15 13:56:28;;;;;;;16.58;9.82;;;;;;;;;;5071302;28;20054;-72
2023/04/15 13:58:57;;;;;;;15.45;10.70;;;;;;;;;;5071335;28;20032;-72
2023/04/15 14:01:23;;;;;;;17.35;9.63;;;;;;;;;;5071452;28;20601;-73
2023/04/15 14:03:50;;;;;;;15.13;10.60;;;;;;;;;;5071068;28;20040;-72
2023/04/15 14:06:16;;;;;;;16.65;11.00;;;;;;;;;;5071199;28;20517;-72
2023/04/15 14:08:42;;;;;;;17.65;11.77;;;;;;;;;;5070921;28;20051;-72
2023/04/15 14:11:08;;;;;;;18.25;11.48;;;;;;;;;;5071233;28;20025;-74
2023/04/15 14:13:34;;;;;;;21.48;10.93;;;;;;;;;;5070602;28;20117;-71
2023/04/15 14:16:00;;;;;;;17.30;11.30;;;;;;;;;;5071701;28;20024;-72
2023/04/15 14:18:26;;;;;;;14.73;10.93;;;;;;;;;;5070743;28;20043;-72